createdAt,value
2016-07-05T00:00:05.903Z,15.96
2016-07-05T00:00:16.540Z,16
2016-07-05T00:00:25.915Z,16.04
2016-07-05T00:00:36.556Z,16.05
2016-07-05T00:00:46.560Z,15.96
2016-07-05T00:00:55.929Z,16
2016-07-05T00:01:06.570Z,16.02
2016-07-05T00:01:16.576Z,16.02
2016-07-05T00:01:26.578Z,15.96
2016-07-05T00:01:35.951Z,16.05
2016-07-05T00:01:46.594Z,16.01
2016-07-05T00:01:56.602Z,16
2016-07-05T00:02:06.603Z,16.01
2016-07-05T00:02:16.614Z,16.02
2016-07-05T00:02:25.976Z,16
2016-07-05T00:02:36.628Z,16.01
2016-07-05T00:02:46.624Z,15.97
2016-07-05T00:02:55.988Z,16
2016-07-05T00:03:06.641Z,15.97
2016-07-05T00:03:16.633Z,16.08
2016-07-05T00:03:26.643Z,16.01
2016-07-05T00:03:36.651Z,16.01
2016-07-05T00:03:46.026Z,15.97
2016-07-05T00:03:56.665Z,15.97
2016-07-05T00:04:06.669Z,16
2016-07-05T00:04:16.666Z,15.97
2016-07-05T00:04:26.673Z,16
2016-07-05T00:04:36.043Z,16.02
2016-07-05T00:04:46.688Z,16
2016-07-05T00:04:56.696Z,16.02
2016-07-05T00:05:06.700Z,16.05
2016-07-05T00:05:16.699Z,16.02
2016-07-05T00:05:26.713Z,16.02
2016-07-05T00:05:36.718Z,16.04
2016-07-05T00:05:46.724Z,15.93
2016-07-05T00:05:56.732Z,16.01
2016-07-05T00:06:06.100Z,16
2016-07-05T00:06:16.739Z,16.01
2016-07-05T00:06:26.740Z,16.01
2016-07-05T00:06:36.111Z,16.04
2016-07-05T00:06:46.752Z,16.01
2016-07-05T00:06:56.761Z,16
2016-07-05T00:07:06.128Z,15.97
2016-07-05T00:07:16.772Z,16.04
2016-07-05T00:07:26.145Z,15.97
2016-07-05T00:07:36.144Z,16.02
2016-07-05T00:07:46.785Z,15.96
2016-07-05T00:07:56.157Z,15.93
2016-07-05T00:08:06.799Z,16.04
2016-07-05T00:08:16.169Z,16.02
2016-07-05T00:08:26.810Z,15.93
2016-07-05T00:08:36.818Z,15.96
2016-07-05T00:08:46.819Z,16
2016-07-05T00:08:56.826Z,15.96
2016-07-05T00:09:06.830Z,16.01
2016-07-05T00:09:16.198Z,15.94
2016-07-05T00:09:26.838Z,15.96
2016-07-05T00:09:36.844Z,15.92
2016-07-05T00:09:46.214Z,15.92
2016-07-05T00:09:56.856Z,15.97
2016-07-05T00:10:06.860Z,15.87
2016-07-05T00:10:16.871Z,15.92
2016-07-05T00:10:26.875Z,15.93
2016-07-05T00:10:36.880Z,15.94
2016-07-05T00:10:46.240Z,16
2016-07-05T00:10:56.253Z,15.86
2016-07-05T00:11:06.893Z,15.94
2016-07-05T00:11:16.898Z,15.92
2016-07-05T00:11:26.909Z,15.86
2016-07-05T00:11:36.908Z,15.87
2016-07-05T00:11:46.916Z,15.94
2016-07-05T00:11:56.279Z,15.89
2016-07-05T00:12:06.285Z,15.84
2016-07-05T00:12:16.930Z,15.87
2016-07-05T00:12:26.292Z,15.86
2016-07-05T00:12:36.951Z,15.86
2016-07-05T00:12:46.953Z,15.87
2016-07-05T00:12:56.303Z,15.86
2016-07-05T00:13:06.945Z,15.9
2016-07-05T00:13:16.327Z,15.84
2016-07-05T00:13:26.972Z,15.83
2016-07-05T00:13:36.973Z,15.94
2016-07-05T00:13:46.341Z,15.83
2016-07-05T00:13:56.982Z,15.83
2016-07-05T00:14:06.349Z,15.8
2016-07-05T00:14:17.000Z,15.78
2016-07-05T00:14:26.988Z,15.84
2016-07-05T00:14:36.371Z,15.84
2016-07-05T00:14:47.012Z,15.71
2016-07-05T00:14:56.380Z,15.86
2016-07-05T00:15:07.009Z,15.86
2016-07-05T00:15:16.381Z,15.76
2016-07-05T00:15:26.385Z,15.75
2016-07-05T00:15:37.037Z,15.83
2016-07-05T00:15:46.406Z,15.86
2016-07-05T00:15:57.047Z,15.82
2016-07-05T00:16:07.056Z,15.84
2016-07-05T00:16:16.422Z,15.89
2016-07-05T00:16:27.073Z,15.8
2016-07-05T00:16:37.068Z,15.89
2016-07-05T00:16:46.443Z,15.71
2016-07-05T00:16:57.081Z,15.8
2016-07-05T00:17:07.083Z,15.75
2016-07-05T00:17:17.088Z,15.75
2016-07-05T00:17:27.097Z,15.72
2016-07-05T00:17:37.106Z,15.82
2016-07-05T00:17:47.109Z,15.83
2016-07-05T00:17:56.484Z,15.78
2016-07-05T00:18:07.116Z,15.76
2016-07-05T00:18:16.486Z,15.78
2016-07-05T00:18:26.488Z,15.84
2016-07-05T00:18:37.129Z,15.87
2016-07-05T00:18:46.505Z,15.76
2016-07-05T00:18:57.139Z,15.78
2016-07-05T00:19:07.150Z,15.83
2016-07-05T00:19:16.521Z,15.75
2016-07-05T00:19:27.164Z,15.76
2016-07-05T00:19:37.169Z,15.84
2016-07-05T00:19:47.159Z,15.74
2016-07-05T00:19:57.179Z,15.82
2016-07-05T00:20:07.179Z,15.76
2016-07-05T00:20:17.175Z,15.8
2016-07-05T00:20:27.190Z,15.78
2016-07-05T00:20:36.562Z,15.8
2016-07-05T00:20:47.191Z,15.78
2016-07-05T00:20:56.577Z,15.74
2016-07-05T00:21:06.567Z,15.8
2016-07-05T00:21:17.217Z,15.82
2016-07-05T00:21:26.592Z,15.76
2016-07-05T00:21:37.223Z,15.75
2016-07-05T00:21:47.237Z,15.72
2016-07-05T00:21:57.238Z,15.75
2016-07-05T00:22:07.249Z,15.82
2016-07-05T00:22:17.253Z,15.82
2016-07-05T00:22:27.256Z,15.74
2016-07-05T00:22:37.263Z,15.71
2016-07-05T00:22:46.631Z,15.76
2016-07-05T00:22:57.270Z,15.76
2016-07-05T00:23:07.276Z,15.74
2016-07-05T00:23:17.286Z,15.76
2016-07-05T00:23:27.289Z,15.75
2016-07-05T00:23:36.646Z,15.72
2016-07-05T00:23:46.661Z,15.78
2016-07-05T00:23:57.309Z,15.8
2016-07-05T00:24:07.310Z,15.67
2016-07-05T00:24:16.677Z,15.74
2016-07-05T00:24:27.314Z,15.8
2016-07-05T00:24:37.327Z,15.74
2016-07-05T00:24:46.694Z,15.75
2016-07-05T00:24:57.337Z,15.72
2016-07-05T00:25:07.344Z,15.75
2016-07-05T00:25:17.342Z,15.72
2016-07-05T00:25:27.352Z,15.82
2016-07-05T00:25:37.358Z,15.8
2016-07-05T00:25:47.362Z,15.69
2016-07-05T00:25:57.359Z,15.82
2016-07-05T00:26:07.383Z,15.78
2016-07-05T00:26:17.379Z,15.75
2016-07-05T00:26:26.737Z,15.65
2016-07-05T00:26:36.743Z,15.83
2016-07-05T00:26:47.385Z,15.75
2016-07-05T00:26:57.394Z,15.74
2016-07-05T00:27:07.398Z,15.82
2016-07-05T00:27:17.399Z,15.69
2016-07-05T00:27:26.767Z,15.74
2016-07-05T00:27:37.418Z,15.68
2016-07-05T00:27:46.790Z,15.72
2016-07-05T00:27:57.433Z,15.68
2016-07-05T00:28:06.793Z,15.83
2016-07-05T00:28:17.441Z,15.71
2016-07-05T00:28:26.797Z,15.69
2016-07-05T00:28:37.448Z,15.74
2016-07-05T00:28:47.461Z,15.83
2016-07-05T00:28:57.461Z,15.71
2016-07-05T00:29:07.465Z,15.76
2016-07-05T00:29:17.475Z,15.67
2016-07-05T00:29:27.477Z,15.75
2016-07-05T00:29:37.484Z,15.71
2016-07-05T00:29:46.864Z,15.72
2016-07-05T00:29:57.486Z,15.71
2016-07-05T00:30:07.495Z,15.75
2016-07-05T00:30:16.876Z,15.72
2016-07-05T00:30:27.502Z,15.75
2016-07-05T00:30:36.872Z,15.67
2016-07-05T00:30:47.530Z,15.68
2016-07-05T00:30:57.530Z,15.72
2016-07-05T00:31:07.530Z,15.62
2016-07-05T00:31:17.533Z,15.71
2016-07-05T00:31:27.547Z,15.69
2016-07-05T00:31:36.911Z,15.62
2016-07-05T00:31:46.917Z,15.67
2016-07-05T00:31:57.571Z,15.68
2016-07-05T00:32:06.930Z,15.64
2016-07-05T00:32:17.577Z,15.67
2016-07-05T00:32:27.581Z,15.64
2016-07-05T00:32:37.582Z,15.6
2016-07-05T00:32:47.590Z,15.67
2016-07-05T00:32:57.592Z,15.62
2016-07-05T00:33:07.597Z,15.57
2016-07-05T00:33:17.603Z,15.62
2016-07-05T00:33:27.606Z,15.67
2016-07-05T00:33:37.616Z,15.62
2016-07-05T00:33:47.619Z,15.67
2016-07-05T00:33:57.627Z,15.65
2016-07-05T00:34:07.629Z,15.62
2016-07-05T00:34:17.635Z,15.67
2016-07-05T00:34:27.639Z,15.69
2016-07-05T00:34:37.653Z,15.57
2016-07-05T00:34:47.658Z,15.57
2016-07-05T00:34:57.020Z,15.6
2016-07-05T00:35:07.027Z,15.6
2016-07-05T00:35:17.670Z,15.6
2016-07-05T00:35:27.034Z,15.62
2016-07-05T00:35:37.045Z,15.57
2016-07-05T00:35:47.683Z,15.57
2016-07-05T00:35:57.695Z,15.57
2016-07-05T00:36:07.698Z,15.54
2016-07-05T00:36:17.076Z,15.62
2016-07-05T00:36:27.075Z,15.54
2016-07-05T00:36:37.726Z,15.59
2016-07-05T00:36:47.081Z,15.6
2016-07-05T00:36:57.721Z,15.6
2016-07-05T00:37:07.090Z,15.47
2016-07-05T00:37:17.091Z,15.57
2016-07-05T00:37:27.740Z,15.6
2016-07-05T00:37:37.749Z,15.6
2016-07-05T00:37:47.116Z,15.62
2016-07-05T00:37:57.760Z,15.54
2016-07-05T00:38:07.759Z,15.59
2016-07-05T00:38:17.763Z,15.56
2016-07-05T00:38:27.129Z,15.56
2016-07-05T00:38:37.777Z,15.46
2016-07-05T00:38:47.144Z,15.5
2016-07-05T00:38:57.791Z,15.56
2016-07-05T00:39:07.804Z,15.53
2016-07-05T00:39:17.798Z,15.56
2016-07-05T00:39:27.802Z,15.5
2016-07-05T00:39:37.171Z,15.53
2016-07-05T00:39:47.180Z,15.53
2016-07-05T00:39:57.184Z,15.57
2016-07-05T00:40:07.186Z,15.49
2016-07-05T00:40:17.202Z,15.44
2016-07-05T00:40:27.837Z,15.46
2016-07-05T00:40:37.843Z,15.5
2016-07-05T00:40:47.852Z,15.51
2016-07-05T00:40:57.211Z,15.51
2016-07-05T00:41:07.855Z,15.49
2016-07-05T00:41:17.864Z,15.34
2016-07-05T00:41:27.870Z,15.46
2016-07-05T00:41:37.870Z,15.46
2016-07-05T00:41:47.878Z,15.49
2016-07-05T00:41:57.243Z,15.53
2016-07-05T00:42:07.261Z,15.46
2016-07-05T00:42:17.896Z,15.35
2016-07-05T00:42:27.905Z,15.44
2016-07-05T00:42:37.901Z,15.43
2016-07-05T00:42:47.901Z,15.44
2016-07-05T00:42:57.263Z,15.43
2016-07-05T00:43:07.917Z,15.44
2016-07-05T00:43:17.923Z,15.46
2016-07-05T00:43:27.916Z,15.43
2016-07-05T00:43:37.924Z,15.44
2016-07-05T00:43:47.928Z,15.47
2016-07-05T00:43:57.300Z,15.5
2016-07-05T00:44:07.951Z,15.46
2016-07-05T00:44:17.962Z,15.43
2016-07-05T00:44:27.962Z,15.46
2016-07-05T00:44:37.340Z,15.47
2016-07-05T00:44:47.970Z,15.47
2016-07-05T00:44:57.339Z,15.49
2016-07-05T00:45:07.346Z,15.44
2016-07-05T00:45:17.977Z,15.41
2016-07-05T00:45:27.993Z,15.43
2016-07-05T00:45:37.362Z,15.44
2016-07-05T00:45:47.363Z,15.43
2016-07-05T00:45:58.010Z,15.38
2016-07-05T00:46:07.382Z,15.47
2016-07-05T00:46:18.025Z,15.38
2016-07-05T00:46:28.022Z,15.47
2016-07-05T00:46:38.032Z,15.43
2016-07-05T00:46:48.036Z,15.47
2016-07-05T00:46:58.041Z,15.41
2016-07-05T00:47:08.044Z,15.38
2016-07-05T00:47:18.053Z,15.38
2016-07-05T00:47:28.044Z,15.46
2016-07-05T00:47:37.427Z,15.38
2016-07-05T00:47:48.068Z,15.46
2016-07-05T00:47:58.087Z,15.5
2016-07-05T00:48:07.430Z,15.44
2016-07-05T00:48:18.082Z,15.35
2016-07-05T00:48:27.452Z,15.41
2016-07-05T00:48:37.457Z,15.32
2016-07-05T00:48:47.462Z,15.41
2016-07-05T00:48:58.100Z,15.43
2016-07-05T00:49:08.110Z,15.44
2016-07-05T00:49:18.118Z,15.39
2016-07-05T00:49:27.499Z,15.39
2016-07-05T00:49:37.486Z,15.34
2016-07-05T00:49:48.132Z,15.36
2016-07-05T00:49:57.502Z,15.29
2016-07-05T00:50:08.137Z,15.31
2016-07-05T00:50:18.147Z,15.32
2016-07-05T00:50:28.155Z,15.31
2016-07-05T00:50:38.156Z,15.34
2016-07-05T00:50:48.179Z,15.36
2016-07-05T00:50:58.172Z,15.27
2016-07-05T00:51:08.178Z,15.31
2016-07-05T00:51:18.180Z,15.32
2016-07-05T00:51:27.547Z,15.29
2016-07-05T00:51:38.190Z,15.36
2016-07-05T00:51:48.194Z,15.39
2016-07-05T00:51:57.567Z,15.32
2016-07-05T00:52:07.577Z,15.32
2016-07-05T00:52:18.209Z,15.32
2016-07-05T00:52:28.219Z,15.32
2016-07-05T00:52:38.220Z,15.36
2016-07-05T00:52:48.225Z,15.32
2016-07-05T00:52:57.598Z,15.32
2016-07-05T00:53:08.233Z,15.35
2016-07-05T00:53:18.231Z,15.34
2016-07-05T00:53:28.249Z,15.31
2016-07-05T00:53:37.614Z,15.29
2016-07-05T00:53:48.260Z,15.27
2016-07-05T00:53:58.250Z,15.29
2016-07-05T00:54:08.267Z,15.31
2016-07-05T00:54:17.636Z,15.27
2016-07-05T00:54:28.274Z,15.28
2016-07-05T00:54:37.656Z,15.2
2016-07-05T00:54:48.290Z,15.25
2016-07-05T00:54:58.279Z,15.35
2016-07-05T00:55:08.297Z,15.32
2016-07-05T00:55:17.673Z,15.28
2016-07-05T00:55:28.315Z,15.35
2016-07-05T00:55:37.683Z,15.25
2016-07-05T00:55:48.331Z,15.27
2016-07-05T00:55:57.688Z,15.32
2016-07-05T00:56:08.335Z,15.23
2016-07-05T00:56:18.337Z,15.27
2016-07-05T00:56:28.342Z,15.28
2016-07-05T00:56:38.347Z,15.32
2016-07-05T00:56:48.353Z,15.19
2016-07-05T00:56:58.360Z,15.29
2016-07-05T00:57:08.362Z,15.28
2016-07-05T00:57:18.370Z,15.25
2016-07-05T00:57:28.378Z,15.23
2016-07-05T00:57:38.377Z,15.25
2016-07-05T00:57:48.384Z,15.2
2016-07-05T00:57:57.762Z,15.2
2016-07-05T00:58:08.398Z,15.29
2016-07-05T00:58:18.410Z,15.25
2016-07-05T00:58:28.414Z,15.27
2016-07-05T00:58:38.409Z,15.27
2016-07-05T00:58:47.775Z,15.32
2016-07-05T00:58:57.790Z,15.23
2016-07-05T00:59:08.432Z,15.34
2016-07-05T00:59:18.430Z,15.25
2016-07-05T00:59:28.437Z,15.21
2016-07-05T00:59:38.444Z,15.23
2016-07-05T00:59:48.446Z,15.36
2016-07-05T00:59:58.456Z,15.29
2016-07-05T01:00:08.458Z,15.2
2016-07-05T01:00:17.828Z,15.27
2016-07-05T01:00:27.828Z,15.2
2016-07-05T01:00:38.467Z,15.28
2016-07-05T01:00:47.840Z,15.29
2016-07-05T01:00:58.487Z,15.27
2016-07-05T01:01:08.490Z,15.25
2016-07-05T01:01:17.851Z,15.28
2016-07-05T01:01:27.864Z,15.23
2016-07-05T01:01:38.507Z,15.14
2016-07-05T01:01:48.511Z,15.23
2016-07-05T01:01:57.878Z,15.23
2016-07-05T01:02:07.885Z,15.2
2016-07-05T01:02:17.889Z,15.29
2016-07-05T01:02:27.886Z,15.25
2016-07-05T01:02:38.532Z,15.32
2016-07-05T01:02:48.528Z,15.25
2016-07-05T01:02:57.903Z,15.21
2016-07-05T01:03:08.558Z,15.2
2016-07-05T01:03:17.921Z,15.27
2016-07-05T01:03:27.924Z,15.28
2016-07-05T01:03:38.569Z,15.27
2016-07-05T01:03:48.571Z,15.11
2016-07-05T01:03:57.942Z,15.2
2016-07-05T01:04:08.587Z,15.17
2016-07-05T01:04:18.588Z,15.28
2016-07-05T01:04:27.949Z,15.1
2016-07-05T01:04:38.598Z,15.27
2016-07-05T01:04:48.595Z,15.21
2016-07-05T01:04:58.603Z,15.14
2016-07-05T01:05:07.980Z,15.13
2016-07-05T01:05:18.627Z,15.27
2016-07-05T01:05:28.627Z,15.2
2016-07-05T01:05:37.988Z,15.14
2016-07-05T01:05:48.633Z,15.25
2016-07-05T01:05:58.633Z,15.21
2016-07-05T01:06:08.644Z,15.1
2016-07-05T01:06:18.650Z,15.25
2016-07-05T01:06:28.657Z,15.23
2016-07-05T01:06:38.663Z,15.17
2016-07-05T01:06:48.664Z,15.19
2016-07-05T01:06:58.663Z,15.14
2016-07-05T01:07:08.678Z,15.14
2016-07-05T01:07:18.153Z,15.21
2016-07-05T01:08:07.954Z,15.17
2016-07-05T01:08:19.317Z,15.17
2016-07-05T01:08:28.890Z,15.2
2016-07-05T01:08:57.983Z,15.17
2016-07-05T01:09:07.300Z,15.23
2016-07-05T01:09:17.249Z,15.19
2016-07-05T01:09:34.880Z,15.14
2016-07-05T01:10:52.278Z,15.19
2016-07-05T01:11:02.637Z,15.2
2016-07-05T01:11:12.645Z,15.19
2016-07-05T01:11:22.727Z,15.1
2016-07-05T01:11:41.892Z,15.21
2016-07-05T01:11:51.566Z,15.11
2016-07-05T01:12:02.325Z,15.27
2016-07-05T01:12:20.246Z,15.28
2016-07-05T01:12:30.196Z,15.27
2016-07-05T01:12:54.817Z,15.2
2016-07-05T01:12:59.243Z,15.2
2016-07-05T01:13:17.474Z,15.25
2016-07-05T01:13:27.119Z,15.23
2016-07-05T01:13:51.422Z,15.23
2016-07-05T01:13:56.028Z,15.23
2016-07-05T01:14:05.377Z,15.29
2016-07-05T01:14:21.450Z,15.28
2016-07-05T01:14:49.176Z,15.28
2016-07-05T01:14:58.255Z,15.31
2016-07-05T01:15:16.439Z,15.25
2016-07-05T01:15:58.986Z,15.23
2016-07-05T01:16:08.827Z,15.32
2016-07-05T01:16:27.747Z,15.27
2016-07-05T01:16:51.650Z,15.28
2016-07-05T01:16:55.006Z,15.31
2016-07-05T01:17:06.681Z,15.25
2016-07-05T01:17:39.778Z,15.32
2016-07-05T01:17:43.990Z,15.31
2016-07-05T01:17:53.987Z,15.35
2016-07-05T01:18:03.344Z,15.32
2016-07-05T01:18:14.001Z,15.32
2016-07-05T01:18:24.002Z,15.35
2016-07-05T01:18:34.006Z,15.34
2016-07-05T01:18:44.070Z,15.32
2016-07-05T01:18:54.010Z,15.32
2016-07-05T01:19:04.016Z,15.31
2016-07-05T01:19:14.034Z,15.36
2016-07-05T01:19:24.031Z,15.31
2016-07-05T01:19:34.054Z,15.34
2016-07-05T01:19:43.407Z,15.35
2016-07-05T01:19:54.048Z,15.32
2016-07-05T01:20:04.055Z,15.38
2016-07-05T01:20:13.419Z,15.34
2016-07-05T01:20:23.428Z,15.29
2016-07-05T01:20:34.074Z,15.29
2016-07-05T01:20:44.081Z,15.39
2016-07-05T01:20:54.078Z,15.38
2016-07-05T01:21:03.451Z,15.34
2016-07-05T01:21:14.092Z,15.39
2016-07-05T01:21:24.098Z,15.41
2016-07-05T01:21:33.464Z,15.39
2016-07-05T01:21:44.105Z,15.41
2016-07-05T01:21:53.477Z,15.39
2016-07-05T01:22:03.486Z,15.41
2016-07-05T01:22:14.121Z,15.34
2016-07-05T01:22:24.129Z,15.41
2016-07-05T01:22:33.491Z,15.47
2016-07-05T01:22:44.132Z,15.5
2016-07-05T01:22:54.141Z,15.44
2016-07-05T01:23:04.146Z,15.38
2016-07-05T01:23:13.522Z,15.43
2016-07-05T01:23:24.159Z,15.49
2016-07-05T01:23:34.166Z,15.41
2016-07-05T01:23:44.168Z,15.41
2016-07-05T01:23:53.534Z,15.46
2016-07-05T01:24:04.180Z,15.49
2016-07-05T01:24:14.180Z,15.44
2016-07-05T01:24:23.544Z,15.35
2016-07-05T01:24:34.196Z,15.46
2016-07-05T01:24:44.202Z,15.44
2016-07-05T01:24:53.573Z,15.47
2016-07-05T01:25:03.574Z,15.44
2016-07-05T01:25:13.584Z,15.44
2016-07-05T01:25:23.584Z,15.51
2016-07-05T01:25:34.236Z,15.46
2016-07-05T01:25:43.597Z,15.46
2016-07-05T01:25:54.233Z,15.5
2016-07-05T01:26:03.605Z,15.54
2016-07-05T01:26:14.244Z,15.5
2016-07-05T01:26:24.250Z,15.46
2016-07-05T01:26:34.260Z,15.47
2016-07-05T01:26:44.254Z,15.49
2016-07-05T01:26:54.265Z,15.5
2016-07-05T01:27:03.632Z,15.49
2016-07-05T01:27:13.646Z,15.51
2016-07-05T01:27:24.282Z,15.47
2016-07-05T01:27:34.286Z,15.49
2016-07-05T01:27:43.664Z,15.51
2016-07-05T01:27:54.300Z,15.51
2016-07-05T01:28:04.304Z,15.54
2016-07-05T01:28:14.311Z,15.47
2016-07-05T01:28:24.319Z,15.49
2016-07-05T01:28:34.320Z,15.51
2016-07-05T01:28:43.689Z,15.56
2016-07-05T01:28:54.336Z,15.57
2016-07-05T01:29:04.336Z,15.49
2016-07-05T01:29:14.345Z,15.53
2016-07-05T01:29:23.716Z,15.38
2016-07-05T01:29:34.348Z,15.47
2016-07-05T01:29:44.361Z,15.53
2016-07-05T01:29:54.367Z,15.5
2016-07-05T01:30:04.367Z,15.51
2016-07-05T01:30:13.741Z,15.5
2016-07-05T01:30:24.384Z,15.54
2016-07-05T01:30:33.753Z,15.51
2016-07-05T01:30:44.388Z,15.47
2016-07-05T01:30:54.392Z,15.46
2016-07-05T01:31:04.401Z,15.56
2016-07-05T01:31:14.396Z,15.49
2016-07-05T01:31:23.765Z,15.49
2016-07-05T01:31:34.404Z,15.56
2016-07-05T01:31:44.414Z,15.53
2016-07-05T01:31:53.780Z,15.56
2016-07-05T01:32:04.427Z,15.49
2016-07-05T01:32:13.790Z,15.46
2016-07-05T01:32:23.796Z,15.57
2016-07-05T01:32:34.441Z,15.56
2016-07-05T01:32:44.443Z,15.47
2016-07-05T01:32:53.812Z,15.56
2016-07-05T01:33:04.453Z,15.47
2016-07-05T01:33:13.827Z,15.53
2016-07-05T01:33:24.471Z,15.56
2016-07-05T01:33:33.835Z,15.56
2016-07-05T01:33:44.478Z,15.41
2016-07-05T01:33:54.486Z,15.49
2016-07-05T01:34:04.487Z,15.57
2016-07-05T01:34:14.496Z,15.51
2016-07-05T01:34:23.862Z,15.57
2016-07-05T01:34:34.503Z,15.47
2016-07-05T01:34:44.512Z,15.49
2016-07-05T01:34:54.514Z,15.57
2016-07-05T01:35:03.880Z,15.51
2016-07-05T01:35:14.531Z,15.46
2016-07-05T01:35:24.528Z,15.47
2016-07-05T01:35:34.536Z,15.47
2016-07-05T01:35:44.536Z,15.46
2016-07-05T01:35:53.908Z,15.5
2016-07-05T01:36:04.546Z,15.51
2016-07-05T01:36:14.553Z,15.44
2016-07-05T01:36:24.562Z,15.47
2016-07-05T01:36:34.571Z,15.47
2016-07-05T01:36:44.575Z,15.53
2016-07-05T01:36:53.951Z,15.5
2016-07-05T01:37:04.587Z,15.49
2016-07-05T01:37:14.585Z,15.46
2016-07-05T01:37:24.602Z,15.46
2016-07-05T01:37:33.968Z,15.51
2016-07-05T01:37:44.603Z,15.41
2016-07-05T01:37:54.615Z,15.47
2016-07-05T01:38:04.617Z,15.47
2016-07-05T01:38:14.620Z,15.51
2016-07-05T01:38:23.987Z,15.49
2016-07-05T01:38:34.637Z,15.46
2016-07-05T01:38:44.004Z,15.38
2016-07-05T01:38:54.648Z,15.43
2016-07-05T01:39:04.014Z,15.44
2016-07-05T01:39:14.019Z,15.46
2016-07-05T01:39:24.659Z,15.47
2016-07-05T01:39:34.031Z,15.51
2016-07-05T01:39:44.041Z,15.44
2016-07-05T01:39:54.678Z,15.38
2016-07-05T01:40:04.689Z,15.41
2016-07-05T01:40:14.692Z,15.41
2016-07-05T01:40:24.697Z,15.47
2016-07-05T01:40:34.703Z,15.5
2016-07-05T01:40:44.701Z,15.43
2016-07-05T01:40:54.699Z,15.36
2016-07-05T01:41:04.706Z,15.44
2016-07-05T01:41:14.081Z,15.46
2016-07-05T01:41:24.729Z,15.46
2016-07-05T01:41:34.731Z,15.36
2016-07-05T01:41:44.098Z,15.44
2016-07-05T01:41:54.751Z,15.46
2016-07-05T01:42:04.749Z,15.36
2016-07-05T01:42:14.759Z,15.32
2016-07-05T01:42:24.758Z,15.47
2016-07-05T01:42:34.768Z,15.47
2016-07-05T01:42:44.135Z,15.39
2016-07-05T01:42:54.139Z,15.41
2016-07-05T01:43:04.781Z,15.38
2016-07-05T01:43:14.149Z,15.44
2016-07-05T01:43:24.792Z,15.41
2016-07-05T01:43:34.799Z,15.39
2016-07-05T01:43:44.166Z,15.41
2016-07-05T01:43:54.803Z,15.34
2016-07-05T01:44:04.174Z,15.32
2016-07-05T01:44:14.813Z,15.34
2016-07-05T01:44:24.821Z,15.35
2016-07-05T01:44:34.831Z,15.35
2016-07-05T01:44:44.835Z,15.35
2016-07-05T01:44:54.829Z,15.34
2016-07-05T01:45:04.842Z,15.36
2016-07-05T01:45:14.843Z,15.29
2016-07-05T01:45:24.216Z,15.35
2016-07-05T01:45:34.859Z,15.35
2016-07-05T01:45:44.223Z,15.32
2016-07-05T01:45:54.879Z,15.35
2016-07-05T01:46:04.866Z,15.31
2016-07-05T01:46:14.875Z,15.31
2016-07-05T01:46:24.883Z,15.36
2016-07-05T01:46:34.886Z,15.27
2016-07-05T01:46:44.895Z,15.34
2016-07-05T01:46:54.899Z,15.21
2016-07-05T01:47:04.907Z,15.23
2016-07-05T01:47:14.916Z,15.27
2016-07-05T01:47:24.915Z,15.32
2016-07-05T01:47:34.921Z,15.31
2016-07-05T01:47:44.925Z,15.32
2016-07-05T01:47:54.933Z,15.28
2016-07-05T01:48:04.934Z,15.28
2016-07-05T01:48:14.939Z,15.25
2016-07-05T01:48:24.953Z,15.29
2016-07-05T01:48:34.953Z,15.2
2016-07-05T01:48:44.961Z,15.23
2016-07-05T01:48:54.328Z,15.27
2016-07-05T01:49:04.967Z,15.23
2016-07-05T01:49:14.979Z,15.27
2016-07-05T01:49:24.979Z,15.27
2016-07-05T01:49:34.984Z,15.25
2016-07-05T01:49:44.989Z,15.29
2016-07-05T01:49:54.358Z,15.25
2016-07-05T01:50:04.998Z,15.25
2016-07-05T01:50:14.370Z,15.21
2016-07-05T01:50:24.374Z,15.25
2016-07-05T01:50:35.013Z,15.28
2016-07-05T01:50:44.381Z,15.35
2016-07-05T01:50:55.024Z,15.29
2016-07-05T01:51:05.034Z,15.21
2016-07-05T01:51:15.031Z,15.29
2016-07-05T01:51:25.048Z,15.28
2016-07-05T01:51:35.042Z,15.23
2016-07-05T01:51:45.056Z,15.27
2016-07-05T01:51:54.422Z,15.16
2016-07-05T01:52:05.061Z,15.23
2016-07-05T01:52:14.434Z,15.29
2016-07-05T01:52:24.437Z,15.21
2016-07-05T01:52:34.444Z,15.25
2016-07-05T01:52:44.446Z,15.25
2016-07-05T01:52:55.088Z,15.23
2016-07-05T01:53:04.455Z,15.2
2016-07-05T01:53:15.100Z,15.19
2016-07-05T01:53:25.112Z,15.23
2016-07-05T01:53:35.122Z,15.25
2016-07-05T01:53:45.113Z,15.25
2016-07-05T01:53:55.120Z,15.19
2016-07-05T01:54:05.125Z,15.29
2016-07-05T01:54:15.130Z,15.25
2016-07-05T01:54:24.501Z,15.2
2016-07-05T01:54:34.504Z,15.29
2016-07-05T01:54:45.149Z,15.23
2016-07-05T01:54:55.152Z,15.19
2016-07-05T01:55:04.526Z,15.23
2016-07-05T01:55:14.527Z,15.2
2016-07-05T01:55:25.173Z,15.25
2016-07-05T01:55:35.173Z,15.28
2016-07-05T01:55:44.535Z,15.28
2016-07-05T01:55:55.187Z,15.23
2016-07-05T01:56:05.191Z,15.23
2016-07-05T01:56:14.552Z,15.31
2016-07-05T01:56:25.204Z,15.14
2016-07-05T01:56:34.566Z,15.23
2016-07-05T01:56:45.211Z,15.21
2016-07-05T01:56:54.579Z,15.2
2016-07-05T01:57:05.222Z,15.28
2016-07-05T01:57:14.577Z,15.28
2016-07-05T01:57:25.221Z,15.28
2016-07-05T01:57:35.236Z,15.13
2016-07-05T01:57:44.605Z,15.14
2016-07-05T01:57:55.248Z,15.27
2016-07-05T01:58:04.617Z,15.16
2016-07-05T01:58:15.258Z,15.2
2016-07-05T01:58:25.247Z,15.28
2016-07-05T01:58:35.267Z,15.14
2016-07-05T01:58:45.259Z,15.14
2016-07-05T01:58:55.277Z,15.17
2016-07-05T01:59:05.286Z,15.21
2016-07-05T01:59:15.281Z,15.09
2016-07-05T01:59:25.282Z,15.17
2016-07-05T01:59:34.663Z,15.2
2016-07-05T01:59:44.665Z,15.27
2016-07-05T01:59:55.467Z,15.23
2016-07-05T02:00:05.346Z,15.23
2016-07-05T02:00:15.320Z,15.1
2016-07-05T02:00:25.371Z,15.1
2016-07-05T02:00:35.330Z,15.11
2016-07-05T02:00:45.342Z,15.25
2016-07-05T02:00:55.401Z,15.16
2016-07-05T02:01:04.832Z,15.2
2016-07-05T02:01:15.351Z,15.17
2016-07-05T02:01:25.347Z,15.13
2016-07-05T02:01:35.423Z,15.17
2016-07-05T02:01:45.420Z,15.16
2016-07-05T02:01:55.372Z,15.14
2016-07-05T02:02:05.562Z,15.17
2016-07-05T02:02:14.857Z,15.17
2016-07-05T02:02:25.513Z,15.14
2016-07-05T02:02:35.436Z,15.11
2016-07-05T02:02:45.515Z,15.19
2016-07-05T02:02:54.949Z,15.14
2016-07-05T02:03:05.533Z,15.17
2016-07-05T02:03:15.527Z,15.16
2016-07-05T02:03:25.531Z,15.13
2016-07-05T02:03:35.412Z,15.11
2016-07-05T02:03:44.972Z,15.17
2016-07-05T02:03:55.432Z,15.13
2016-07-05T02:04:05.440Z,15.19
2016-07-05T02:04:15.444Z,15.19
2016-07-05T02:04:25.001Z,15.13
2016-07-05T02:04:34.812Z,15.2
2016-07-05T02:04:45.462Z,15.25
2016-07-05T02:04:55.466Z,15.11
2016-07-05T02:05:05.596Z,15.17
2016-07-05T02:05:14.884Z,15.11
2016-07-05T02:05:25.609Z,15.11
2016-07-05T02:05:35.490Z,15.11
2016-07-05T02:05:45.485Z,15.1
2016-07-05T02:05:55.612Z,15.1
2016-07-05T02:06:05.028Z,15.17
2016-07-05T02:06:15.626Z,15.17
2016-07-05T02:06:25.576Z,15.13
2016-07-05T02:06:35.642Z,15.1
2016-07-05T02:06:44.993Z,15.16
2016-07-05T02:06:55.647Z,15.13
2016-07-05T02:07:05.580Z,15.13
2016-07-05T02:07:15.667Z,15.19
2016-07-05T02:07:25.594Z,15.16
2016-07-05T02:07:35.673Z,15.09
2016-07-05T02:07:44.983Z,15.14
2016-07-05T02:07:55.623Z,15.16
2016-07-05T02:08:04.990Z,15.09
2016-07-05T02:08:15.622Z,15.1
2016-07-05T02:08:25.701Z,15.14
2016-07-05T02:08:35.646Z,15.11
2016-07-05T02:08:45.596Z,15.1
2016-07-05T02:08:55.655Z,15.09
2016-07-05T02:09:05.660Z,15.14
2016-07-05T02:09:15.599Z,15.17
2016-07-05T02:09:25.603Z,15.1
2016-07-05T02:09:35.614Z,15.19
2016-07-05T02:09:45.611Z,15.1
2016-07-05T02:09:55.617Z,15.1
2016-07-05T02:10:04.994Z,15.2
2016-07-05T02:10:15.631Z,15.13
2016-07-05T02:10:25.639Z,15.19
2016-07-05T02:10:35.007Z,15.07
2016-07-05T02:10:45.647Z,15.1
2016-07-05T02:10:55.648Z,15.07
2016-07-05T02:11:05.024Z,15.11
2016-07-05T02:11:15.658Z,15.07
2016-07-05T02:11:25.667Z,15.16
2016-07-05T02:11:35.676Z,15.07
2016-07-05T02:11:45.678Z,15.07
2016-07-05T02:11:55.683Z,15.1
2016-07-05T02:12:05.687Z,15.07
2016-07-05T02:12:15.059Z,15.06
2016-07-05T02:12:25.698Z,15.1
2016-07-05T02:12:35.702Z,15.07
2016-07-05T02:12:45.710Z,15.06
2016-07-05T02:12:55.078Z,15.09
2016-07-05T02:13:05.723Z,15.1
2016-07-05T02:13:15.724Z,15.07
2016-07-05T02:13:25.735Z,15.1
2016-07-05T02:13:35.735Z,15.11
2016-07-05T02:13:45.743Z,15.16
2016-07-05T02:13:55.111Z,15.09
2016-07-05T02:14:05.752Z,15.11